Data for 01/26/2006

Time Sea-Level Adjusted Pressure Absolute Pressure Temperature Relative Humidity Dew Point   
(mb) (inHg) (mb) (inHg) (C) (F) (%) (C) (F)
00:05 1011 29.85 840 24.81 2.3 36.2 32 -12.7 9.2
00:10 1011 29.85 840 24.81 2.4 36.2 33 -12.4 9.6
00:15 1011 29.85 840 24.81 2.2 35.9 34 -12.2 10
00:20 1011 29.85 840 24.81 2.1 35.9 34 -12.3 9.8
00:25 1011 29.85 840 24.81 2.2 36 34 -12 10.4
00:30 1011 29.85 840 24.81 2.3 36.1 33 -12.6 9.4
00:35 1011 29.85 840 24.81 2.4 36.3 34 -12 10.3
00:40 1011 29.85 840 24.81 2.1 35.7 35 -11.8 10.8
00:45 1011 29.85 840 24.81 2 35.5 35 -12 10.5
00:50 1011 29.85 840 24.81 2.3 36.1 33 -12.6 9.3
00:55 1011 29.85 840 24.81 2.5 36.6 32 -12.6 9.4
01:00 1011 29.85 840 24.81 2.8 37 31 -12.6 9.3
01:05 1011 29.85 840 24.81 3.1 37.6 30 -12.7 9.2
01:10 1011 29.85 840 24.81 3.3 37.9 31 -12.4 9.7
01:15 1011 29.85 840 24.81 3.1 37.6 30 -12.7 9.1
01:20 1011 29.85 840 24.81 3.1 37.6 34 -11.4 11.4
01:25 1011 29.85 840 24.81 2 35.6 37 -11.3 11.6
01:30 1011 29.85 840 24.81 1.5 34.8 41 -10.3 13.4
01:35 1011 29.85 840 24.81 1.1 34.1 40 -11.1 12
01:40 1011 29.85 840 24.81 1.3 34.4 39 -11.2 11.9
01:45 1011 29.85 840 24.81 1.4 34.5 42 -10.1 13.8
01:50 1011 29.85 840 24.81 1 33.9 40 -11 12.2
01:55 1011 29.85 840 24.81 1.4 34.5 38 -11.4 11.4
02:00 1011 29.85 840 24.81 1.8 35.3 40 -10.3 13.4
02:05 1011 29.85 840 24.81 1.8 35.3 38 -11 12.1
02:10 1011 29.85 840 24.81 1.8 35.3 39 -10.6 13
02:15 1011 29.85 840 24.81 1.5 34.8 42 -10 14.1
02:20 1011 29.85 840 24.81 0.8 33.5 42 -10.7 12.7
02:25 1011 29.85 840 24.81 1.2 34.1 43 -10 13.9
02:30 1011 29.85 840 24.81 0.8 33.4 43 -10.5 13.2
02:35 1011 29.85 840 24.81 0.8 33.4 45 -10 14.1
02:40 1011 29.85 840 24.81 0.1 32.2 46 -10.3 13.5
02:45 1011 29.85 840 24.81 -0.2 31.7 48 -10 14
02:50 1011 29.85 840 24.81 -0.5 31.2 46 -10.6 12.8
02:55 1011 29.85 840 24.81 0.5 32.9 42 -11 12.2
03:00 1011 29.85 840 24.81 0.4 32.8 43 -10.8 12.6
03:05 1011 29.85 840 24.81 0.2 32.4 43 -10.8 12.5
03:10 1011 29.85 840 24.81 0.1 32.3 43 -11 12.3
03:15 1011 29.85 840 24.81 -0.1 31.8 44 -10.9 12.5
03:20 1010 29.83 840 24.81 -0.2 31.6 44 -11.1 12
03:25 1010 29.83 840 24.81 0.6 33.1 37 -12.4 9.7
03:30 1010 29.83 840 24.81 1.2 34.2 38 -11.7 11
03:35 1010 29.83 839 24.78 1.1 34 38 -11.7 10.9
03:40 1010 29.83 839 24.78 1.1 34 39 -11.4 11.6
03:45 1010 29.83 839 24.78 0.8 33.4 41 -11.2 11.9
03:50 1010 29.83 840 24.81 1.3 34.3 36 -12.1 10.3
03:55 1010 29.83 840 24.81 1 33.7 41 -10.8 12.5
04:00 1010 29.83 839 24.78 0.1 32.2 45 -10.6 13
04:05 1010 29.83 839 24.78 -0.3 31.4 46 -10.5 13.1
04:10 1010 29.83 839 24.78 -0.4 31.2 45 -10.9 12.4
04:15 1010 29.83 839 24.78 0.3 32.6 43 -10.8 12.5
04:20 1010 29.83 839 24.78 0.4 32.7 41 -11.3 11.7
04:25 1010 29.83 839 24.78 0.9 33.6 39 -11.5 11.2
04:30 1010 29.83 839 24.78 0.6 33 42 -11 12.1
04:35 1010 29.83 839 24.78 0.2 32.4 40 -11.9 10.6
04:40 1010 29.83 839 24.78 0.7 33.2 38 -12 10.4
04:45 1010 29.83 839 24.78 1.1 34 38 -11.7 10.9
04:50 1010 29.83 839 24.78 0.1 32.1 42 -11.4 11.5
04:55 1010 29.83 839 24.78 -0.7 30.8 45 -11.2 11.8
05:00 1010 29.83 839 24.78 -0.9 30.4 47 -10.9 12.3
05:05 1010 29.83 839 24.78 -0.9 30.4 48 -10.7 12.8
05:10 1010 29.83 839 24.78 -1.6 29.2 46 -11.6 11.1
05:15 1010 29.83 839 24.78 -0.7 30.8 42 -12 10.4
05:20 1010 29.83 839 24.78 -0.6 30.9 43 -11.7 11
05:25 1010 29.83 839 24.78 -0.2 31.7 40 -12.1 10.3
05:30 1010 29.83 839 24.78 0.2 32.4 40 -11.7 11
05:35 1010 29.83 839 24.78 -0.1 31.9 42 -11.5 11.2
05:40 1010 29.83 839 24.78 -0.5 31.2 42 -11.8 10.8
05:45 1010 29.83 839 24.78 -0.6 31 45 -11.2 11.9
05:50 1010 29.83 839 24.78 -0.9 30.3 46 -11.1 12
05:55 1010 29.83 839 24.78 -1.2 29.8 50 -10.4 13.4
06:00 1010 29.83 839 24.78 -0.9 30.5 48 -10.4 13.2
06:05 1010 29.83 839 24.78 -1 30.2 47 -11.1 12
06:10 1010 29.83 839 24.78 -0.9 30.4 48 -10.7 12.8
06:15 1010 29.83 839 24.78 -0.8 30.5 50 -10.1 13.9
06:20 1010 29.83 839 24.78 -1 30.2 47 -10.9 12.4
06:25 1010 29.83 839 24.78 -1.3 29.7 49 -10.6 12.9
06:30 1010 29.83 839 24.78 -1.2 29.8 48 -10.9 12.4
06:35 1010 29.83 839 24.78 -1.4 29.5 50 -10.5 13.1
06:40 1010 29.83 839 24.78 -1.9 28.5 53 -10.3 13.5
06:45 1010 29.83 839 24.78 -1.8 28.8 51 -10.7 12.8
06:50 1010 29.83 839 24.78 -1.8 28.8 51 -10.7 12.7
06:55 1010 29.83 839 24.78 -1.9 28.5 52 -10.7 12.8
07:00 1010 29.83 839 24.78 -2.6 27.3 53 -11.1 12.1
07:05 1010 29.83 839 24.78 -2.8 26.9 53 -11.2 11.8
07:10 1010 29.83 839 24.78 -2.6 27.3 53 -11 12.2
07:15 1010 29.83 839 24.78 -2.5 27.5 53 -10.9 12.3
07:20 1010 29.83 839 24.78 -2.6 27.4 53 -10.8 12.5
07:25 1010 29.83 839 24.78 -2.6 27.2 53 -11 12.2
07:30 1010 29.83 839 24.78 -2.9 26.8 53 -11.1 12
07:35 1010 29.83 839 24.78 -2.6 27.2 51 -11.4 11.6
07:40 1010 29.83 839 24.78 -2.3 27.9 51 -11.2 11.9
07:45 1010 29.83 840 24.81 -2.3 27.8 51 -11.2 11.8
07:50 1010 29.83 840 24.81 -2.3 27.8 49 -11.6 11.2
07:55 1010 29.83 840 24.81 -2.1 28.3 49 -11.4 11.5
08:00 1011 29.85 840 24.81 -2.3 27.8 49 -11.6 11.2
08:05 1011 29.85 840 24.81 -1.6 29 46 -11.7 10.9
08:10 1011 29.85 840 24.81 -1.7 29 47 -11.7 11
08:15 1011 29.85 840 24.81 -1.7 29 49 -11.1 12
08:20 1011 29.85 840 24.81 -1.9 28.5 50 -11.1 12
08:25 1011 29.85 840 24.81 -1.9 28.6 49 -11.2 11.8
08:30 1011 29.85 840 24.81 -1.5 29.3 46 -11.7 10.9
08:35 1011 29.85 840 24.81 -1 30.2 45 -11.4 11.5
08:40 1011 29.85 840 24.81 -0.7 30.8 43 -11.6 11.1
08:45 1011 29.85 840 24.81 -0.7 30.8 43 -11.7 11
08:50 1011 29.85 840 24.81 -0.6 30.9 44 -11.6 11.2
08:55 1011 29.85 840 24.81 -1.2 29.8 48 -11 12.2
09:00 1011 29.85 840 24.81 -1.5 29.3 48 -11.1 12.1
09:05 1011 29.85 840 24.81 -1.8 28.8 47 -11.6 11.1
09:10 1011 29.85 841 24.83 -1.1 30 44 -12 10.4
09:15 1011 29.85 841 24.83 -0.6 31 44 -11.5 11.3
09:20 1011 29.85 841 24.83 0.6 33 40 -11.7 11
09:25 1011 29.85 841 24.83 0.5 33 42 -11 12.3
09:30 1012 29.88 841 24.83 0.6 33.2 42 -10.8 12.6
09:35 1011 29.85 841 24.83 0.9 33.7 40 -11.3 11.6
09:40 1011 29.85 841 24.83 1.6 34.9 39 -11 12.1
09:45 1012 29.88 841 24.83 1.9 35.4 39 -10.5 13.1
09:50 1012 29.88 841 24.83 1.4 34.5 40 -10.7 12.8
09:55 1012 29.88 841 24.83 0.1 32.3 43 -11 12.2
10:00 1012 29.88 841 24.83 0.8 33.4 41 -11.1 12
10:05 1012 29.88 841 24.83 1.4 34.5 40 -10.8 12.6
10:10 1011 29.85 841 24.83 1.7 35.1 37 -11.4 11.4
10:15 1012 29.88 841 24.83 2.7 36.9 35 -11.3 11.7
10:20 1012 29.88 841 24.83 2.6 36.6 38 -10.5 13
10:25 1012 29.88 841 24.83 2.2 35.9 39 -10.4 13.2
10:30 1011 29.85 841 24.83 1.7 35 40 -10.4 13.3
10:35 1012 29.88 841 24.83 1.8 35.2 40 -10.5 13.1
10:40 1012 29.88 841 24.83 2.3 36.1 38 -10.7 12.7
10:45 1012 29.88 841 24.83 2.5 36.6 38 -10.5 13
10:50 1012 29.88 841 24.83 3.4 38.1 34 -11 12.3
10:55 1012 29.88 841 24.83 4.7 40.5 31 -11.1 12
11:00 1011 29.85 841 24.83 5.4 41.8 31 -10.4 13.2
11:05 1011 29.85 841 24.83 5.5 41.9 31 -10.1 13.8
11:10 1011 29.85 841 24.83 6.2 43.2 29 -10.4 13.2
11:15 1011 29.85 841 24.83 6.5 43.7 29 -10.4 13.3
11:20 1011 29.85 841 24.83 6.9 44.4 30 -9.6 14.7
11:25 1011 29.85 841 24.83 6.8 44.2 30 -9.8 14.3
11:30 1011 29.85 841 24.83 7.1 44.8 29 -9.9 14.1
11:35 1011 29.85 840 24.81 7.1 44.8 28 -10.1 13.7
11:40 1011 29.85 840 24.81 6.7 44.1 29 -10.1 13.7
11:45 1011 29.85 840 24.81 6.7 44 29 -10.1 13.8
11:50 1011 29.85 840 24.81 7 44.6 29 -9.9 14.2
11:55 1011 29.85 840 24.81 7.1 44.8 29 -9.8 14.4
12:00 1011 29.85 840 24.81 7.1 44.7 29 -9.9 14.2
12:05 1011 29.85 840 24.81 6.7 44.1 29 -10 14
12:10 1011 29.85 840 24.81 6.7 44.1 29 -10 14
12:15 1011 29.85 840 24.81 6.3 43.3 30 -9.9 14.1
12:20 1011 29.85 840 24.81 6.1 42.9 31 -9.9 14.2
12:25 1011 29.85 840 24.81 6.4 43.6 30 -9.9 14.2
12:30 1011 29.85 840 24.81 7 44.5 30 -9.5 14.9
12:35 1011 29.85 840 24.81 6.9 44.3 30 -9.4 15.1
12:40 1011 29.85 840 24.81 7.1 44.7 29 -9.8 14.3
12:45 1011 29.85 840 24.81 6.9 44.4 30 -9.6 14.8
12:50 1011 29.85 840 24.81 7 44.5 30 -9.4 15
12:55 1011 29.85 840 24.81 7.4 45.3 29 -9.3 15.2
13:00 1011 29.85 840 24.81 7.6 45.7 30 -9.1 15.6
13:05 1011 29.85 840 24.81 7.6 45.7 30 -9 15.8
13:10 1010 29.83 840 24.81 7.8 46 29 -9.3 15.2
13:15 1010 29.83 840 24.81 7.6 45.7 30 -8.8 16.2
13:20 1010 29.83 840 24.81 7.8 46.1 30 -8.7 16.4
13:25 1010 29.83 840 24.81 7.8 46.1 31 -8.4 16.9
13:30 1010 29.83 839 24.78 8.1 46.5 29 -8.8 16.2
13:35 1010 29.83 839 24.78 7.5 45.5 30 -8.8 16.1
13:40 1010 29.83 839 24.78 7.7 45.9 29 -9 15.7
13:45 1010 29.83 839 24.78 7.9 46.1 31 -8.4 16.9
13:50 1010 29.83 839 24.78 7.4 45.4 31 -8.7 16.3
13:55 1010 29.83 839 24.78 7.6 45.7 30 -8.7 16.3
14:00 1010 29.83 839 24.78 7.6 45.7 30 -8.9 16
14:05 1010 29.83 839 24.78 7.3 45.1 31 -8.6 16.5
14:10 1010 29.83 839 24.78 7.2 45 31 -8.8 16.2
14:15 1010 29.83 839 24.78 6.7 44.1 33 -8.5 16.7
14:20 1010 29.83 839 24.78 6.2 43.2 34 -8.4 16.9
14:25 1010 29.83 839 24.78 5.9 42.7 34 -8.6 16.5
14:30 1010 29.83 839 24.78 5.9 42.6 35 -8.5 16.6
14:35 1010 29.83 839 24.78 5.8 42.5 34 -9 15.9
14:40 1010 29.83 839 24.78 6.1 43 34 -8.8 16.2
14:45 1010 29.83 839 24.78 6.4 43.5 33 -8.6 16.5
14:50 1010 29.83 839 24.78 6.3 43.3 34 -8.3 17.1
14:55 1010 29.83 839 24.78 6.1 43 34 -8.5 16.7
15:00 1010 29.83 839 24.78 6 42.9 34 -8.6 16.5
15:05 1010 29.83 839 24.78 6.1 42.9 34 -8.6 16.6
15:10 1010 29.83 839 24.78 6.2 43.1 33 -9 15.9
15:15 1010 29.83 839 24.78 6.1 42.9 33 -8.9 16
15:20 1010 29.83 839 24.78 6.2 43.1 33 -9 15.8
15:25 1010 29.83 839 24.78 6.1 42.9 33 -9 15.8
15:30 1010 29.83 839 24.78 6.2 43.1 33 -9 15.8
15:35 1010 29.83 839 24.78 6.1 43 33 -8.9 15.9
15:40 1010 29.83 839 24.78 6.1 43 34 -8.5 16.8
15:45 1010 29.83 839 24.78 6 42.7 34 -8.8 16.2
15:50 1010 29.83 839 24.78 5.9 42.6 33 -9.2 15.5
15:55 1010 29.83 839 24.78 5.7 42.3 33 -9.3 15.3
16:00 1010 29.83 840 24.81 5.5 41.9 35 -8.9 15.9
16:05 1010 29.83 840 24.81 5.4 41.7 35 -9 15.8
16:10 1010 29.83 840 24.81 5.2 41.3 35 -8.9 15.9
16:15 1010 29.83 840 24.81 5.2 41.4 35 -9 15.8
16:20 1010 29.83 840 24.81 5.4 41.7 35 -9 15.7
16:25 1011 29.85 840 24.81 5.4 41.7 35 -9 15.9
16:30 1011 29.85 840 24.81 5.4 41.8 35 -8.8 16.2
16:35 1011 29.85 840 24.81 5.5 41.9 35 -8.7 16.4
16:40 1011 29.85 840 24.81 5.4 41.8 35 -8.7 16.3
16:45 1011 29.85 840 24.81 5.3 41.5 36 -8.7 16.4
16:50 1011 29.85 840 24.81 5 41.1 37 -8.5 16.7
16:55 1011 29.85 840 24.81 4.5 40.1 38 -8.5 16.7
17:00 1011 29.85 840 24.81 4.4 39.8 37 -9 15.8
17:05 1011 29.85 840 24.81 4.3 39.7 38 -8.7 16.3
17:10 1011 29.85 840 24.81 4.1 39.4 39 -8.6 16.6
17:15 1011 29.85 840 24.81 4 39.1 40 -8.6 16.5
17:20 1011 29.85 840 24.81 3.8 38.9 41 -8.1 17.3
17:25 1011 29.85 840 24.81 3.4 38.1 43 -8 17.7
17:30 1011 29.85 840 24.81 3.1 37.6 44 -8 17.6
17:35 1011 29.85 840 24.81 2.9 37.2 45 -7.9 17.8
17:40 1011 29.85 841 24.83 2.7 36.8 46 -7.8 18
17:45 1011 29.85 841 24.83 2.5 36.4 46 -8 17.7
17:50 1012 29.88 841 24.83 2.5 36.5 47 -7.7 18.2
17:55 1012 29.88 841 24.83 2.4 36.4 48 -7.4 18.6
18:00 1012 29.88 841 24.83 2.4 36.3 49 -7.4 18.7
18:05 1012 29.88 841 24.83 2.4 36.4 47 -7.8 18
18:10 1012 29.88 841 24.83 2.7 36.8 46 -7.8 17.9
18:15 1012 29.88 841 24.83 2.7 36.8 46 -7.8 17.9
18:20 1012 29.88 841 24.83 2.5 36.5 46 -8 17.5
18:25 1012 29.88 841 24.83 2.4 36.3 46 -7.9 17.7
18:30 1012 29.88 841 24.83 2.3 36.1 47 -7.8 17.9
18:35 1012 29.88 841 24.83 2.1 35.7 47 -8.2 17.3
18:40 1012 29.88 841 24.83 2 35.6 48 -7.9 17.7
18:45 1012 29.88 841 24.83 1.9 35.4 49 -7.8 18
18:50 1012 29.88 841 24.83 1.6 34.9 49 -7.9 17.7
18:55 1012 29.88 841 24.83 1.6 34.8 48 -8.2 17.2
19:00 1012 29.88 841 24.83 1.6 34.8 48 -8.2 17.2
19:05 1012 29.88 841 24.83 1.6 34.9 48 -8.2 17.2
19:10 1012 29.88 841 24.83 1.6 34.9 47 -8.5 16.7
19:15 1012 29.88 841 24.83 1.7 35.1 46 -8.7 16.4
19:20 1012 29.88 841 24.83 1.7 35.1 47 -8.5 16.8
19:25 1012 29.88 841 24.83 1.5 34.7 47 -8.6 16.5
19:30 1012 29.88 841 24.83 1.4 34.5 49 -8.1 17.4
19:35 1012 29.88 841 24.83 0.9 33.7 50 -8.4 16.8
19:40 1012 29.88 841 24.83 1.1 33.9 49 -8.5 16.7
19:45 1012 29.88 841 24.83 1 33.9 49 -8.6 16.5
19:50 1012 29.88 841 24.83 1 33.7 51 -8.1 17.4
19:55 1012 29.88 841 24.83 0.1 32.3 53 -8.2 17.2
20:00 1012 29.88 841 24.83 0.1 32.1 52 -8.6 16.5
20:05 1012 29.88 841 24.83 0.4 32.7 52 -8.5 16.7
20:10 1012 29.88 841 24.83 0.4 32.7 51 -8.7 16.4
20:15 1012 29.88 841 24.83 0.5 33 51 -8.5 16.7
20:20 1012 29.88 841 24.83 0.6 33.1 51 -8.5 16.7
20:25 1012 29.88 841 24.83 0.6 33.1 50 -8.7 16.4
20:30 1012 29.88 841 24.83 0.5 32.9 51 -8.5 16.8
20:35 1012 29.88 841 24.83 0.5 32.8 50 -8.7 16.4
20:40 1012 29.88 841 24.83 0.7 33.3 50 -8.5 16.8
20:45 1012 29.88 841 24.83 0.6 33 50 -8.6 16.5
20:50 1012 29.88 841 24.83 0.6 33.1 50 -8.6 16.5
20:55 1012 29.88 841 24.83 0.8 33.4 50 -8.4 16.9
21:00 1012 29.88 841 24.83 0.6 33.1 51 -8.3 17.1
21:05 1012 29.88 841 24.83 0.4 32.6 52 -8.4 17
21:10 1012 29.88 841 24.83 0.5 33 51 -8.4 16.9
21:15 1012 29.88 841 24.83 0.9 33.6 50 -8.4 16.8
21:20 1012 29.88 841 24.83 1 33.8 51 -8 17.7
21:25 1012 29.88 841 24.83 1 33.8 52 -7.7 18.1
21:30 1012 29.88 841 24.83 1 33.8 52 -7.7 18.1
21:35 1012 29.88 841 24.83 1 33.8 53 -7.5 18.5
21:40 1012 29.88 841 24.83 1.1 34 53 -7.5 18.6
21:45 1012 29.88 842 24.86 1.1 34 54 -7.3 18.9
21:50 1012 29.88 842 24.86 0.9 33.5 55 -7.3 18.9
21:55 1012 29.88 842 24.86 0.7 33.2 55 -7.3 18.9
22:00 1012 29.88 842 24.86 0.6 33.1 55 -7.3 18.8
22:05 1012 29.88 841 24.83 0.6 33 56 -7.2 19
22:10 1012 29.88 841 24.83 0.5 32.9 55 -7.4 18.7
22:15 1012 29.88 841 24.83 0.6 33.1 55 -7.3 18.8
22:20 1012 29.88 841 24.83 0.7 33.3 55 -7.3 18.9
22:25 1012 29.88 841 24.83 0.8 33.5 54 -7.5 18.4
22:30 1012 29.88 841 24.83 0.9 33.7 54 -7.4 18.6
22:35 1012 29.88 842 24.86 0.9 33.5 53 -7.6 18.3
22:40 1012 29.88 842 24.86 0.9 33.6 54 -7.3 18.8
22:45 1012 29.88 841 24.83 0.8 33.5 54 -7.4 18.7
22:50 1012 29.88 841 24.83 0.8 33.4 53 -7.7 18.2
22:55 1012 29.88 841 24.83 0.6 33.1 54 -7.6 18.3
23:00 1012 29.88 841 24.83 0.5 32.9 55 -7.5 18.5
23:05 1012 29.88 841 24.83 0.3 32.6 57 -7.2 19
23:10 1012 29.88 841 24.83 -0 32 59 -7.1 19.2
23:15 1012 29.88 841 24.83 -0.2 31.7 59 -7.3 18.9
23:20 1012 29.88 841 24.83 -0.3 31.5 60 -7.1 19.2
23:25 1012 29.88 841 24.83 -0.2 31.6 59 -7.3 18.9
23:30 1012 29.88 841 24.83 0.2 32.3 57 -7.3 18.9
23:35 1012 29.88 841 24.83 0.4 32.7 56 -7.3 18.8
23:40 1012 29.88 841 24.83 0.6 33.1 54 -7.6 18.3
23:45 1012 29.88 841 24.83 0.8 33.5 54 -7.6 18.4
23:50 1012 29.88 841 24.83 0.8 33.4 55 -7.4 18.7
23:55 1012 29.88 841 24.83 0.6 33.1 55 -7.3 18.8
24:00 1012 29.88 841 24.83 0.4 32.7 57 -7.1 19.3